Time;durP1;ratioP1;P1;durP2;ratioP2;P2;SDS_P1;SDS_P2;PMS_P1;PMS_P2;Temp;Humidity;BMP_temperature;BMP_pressure;BME280_temperature;BME280_humidity;BME280_pressure;Samples;Min_cycle;Max_cycle;Signal;HPM_P1;HPM_P2
2021/11/25 00:01:47;;;;;;;21.02;10.38;;;;;;;;;;5031310;28;20029;-80
2021/11/25 00:04:18;;;;;;;18.63;9.25;;;;;;;;;;5018088;28;20123;-80
2021/11/25 00:06:45;;;;;;;22.02;11.48;;;;;;;;;;5025185;28;20055;-79
2021/11/25 00:09:12;;;;;;;23.85;11.10;;;;;;;;;;5019941;28;20033;-79
2021/11/25 00:11:54;;;;;;;21.00;10.43;;;;;;;;;;5008532;28;20045;-80
2021/11/25 00:14:23;;;;;;;28.13;11.05;;;;;;;;;;5032600;28;20795;-80
2021/11/25 00:16:54;;;;;;;20.92;9.32;;;;;;;;;;5019607;28;20033;-80
2021/11/25 00:19:22;;;;;;;24.38;9.93;;;;;;;;;;5024315;28;20068;-80
2021/11/25 00:21:52;;;;;;;22.30;9.60;;;;;;;;;;5030180;28;20151;-80
2021/11/25 00:24:20;;;;;;;21.80;9.88;;;;;;;;;;5031479;28;20085;-80
2021/11/25 00:26:47;;;;;;;22.25;8.20;;;;;;;;;;5027904;28;21443;-80
2021/11/25 00:29:17;;;;;;;19.30;8.45;;;;;;;;;;5028473;28;20049;-80
2021/11/25 00:31:47;;;;;;;19.83;8.25;;;;;;;;;;5029593;28;20504;-79
2021/11/25 00:34:17;;;;;;;16.40;6.82;;;;;;;;;;5030656;28;20035;-80
2021/11/25 00:36:47;;;;;;;18.98;7.35;;;;;;;;;;5028524;28;20110;-80
2021/11/25 00:39:16;;;;;;;16.33;7.25;;;;;;;;;;5030927;28;20025;-79
2021/11/25 00:41:50;;;;;;;16.42;7.35;;;;;;;;;;5036422;28;20068;-80
2021/11/25 00:44:19;;;;;;;16.77;7.15;;;;;;;;;;5040642;28;20114;-80
2021/11/25 00:46:48;;;;;;;20.08;8.43;;;;;;;;;;5035722;28;20041;-81
2021/11/25 00:49:17;;;;;;;19.33;8.02;;;;;;;;;;5036314;28;20145;-79
2021/11/25 00:51:46;;;;;;;16.73;7.68;;;;;;;;;;5037469;28;20048;-79
2021/11/25 00:54:16;;;;;;;19.75;8.88;;;;;;;;;;5035270;28;20314;-79
2021/11/25 00:56:44;;;;;;;23.15;8.63;;;;;;;;;;5039610;28;20029;-79
2021/11/25 00:59:12;;;;;;;27.15;10.32;;;;;;;;;;5019892;28;20053;-79
2021/11/25 01:01:40;;;;;;;19.98;8.82;;;;;;;;;;5033880;28;20037;-80
2021/11/25 01:04:08;;;;;;;19.88;8.50;;;;;;;;;;5025341;28;20485;-79
2021/11/25 01:06:41;;;;;;;23.80;9.23;;;;;;;;;;5020893;28;20033;-80
2021/11/25 01:09:11;;;;;;;19.55;7.88;;;;;;;;;;5043712;28;20024;-80
2021/11/25 01:11:38;;;;;;;19.98;8.32;;;;;;;;;;5022983;28;20163;-80
2021/11/25 01:14:06;;;;;;;20.30;8.88;;;;;;;;;;5042565;28;20141;-79
2021/11/25 01:16:34;;;;;;;16.17;7.63;;;;;;;;;;5025439;28;20086;-79
2021/11/25 01:19:22;;;;;;;18.08;7.65;;;;;;;;;;5015011;28;20068;-80
2021/11/25 01:21:51;;;;;;;16.85;7.15;;;;;;;;;;5021791;28;20082;-80
2021/11/25 01:24:20;;;;;;;15.38;6.47;;;;;;;;;;5029068;28;20535;-80
2021/11/25 01:26:48;;;;;;;14.30;5.85;;;;;;;;;;5039663;28;20028;-79
2021/11/25 01:29:16;;;;;;;17.33;6.13;;;;;;;;;;5025114;28;20041;-80
2021/11/25 01:31:45;;;;;;;12.90;5.47;;;;;;;;;;5008185;28;21090;-80
2021/11/25 01:34:12;;;;;;;12.88;5.65;;;;;;;;;;4990360;28;20080;-80
2021/11/25 01:36:41;;;;;;;15.27;5.47;;;;;;;;;;4984803;28;20785;-80
2021/11/25 01:39:11;;;;;;;12.07;5.13;;;;;;;;;;4987997;28;20034;-79
2021/11/25 01:41:39;;;;;;;13.30;5.20;;;;;;;;;;4984192;28;20839;-80
2021/11/25 01:44:06;;;;;;;12.10;4.82;;;;;;;;;;4990673;28;20034;-80
2021/11/25 01:46:33;;;;;;;18.02;5.78;;;;;;;;;;4969778;28;20077;-79
2021/11/25 01:49:01;;;;;;;16.58;6.13;;;;;;;;;;4970075;28;20046;-80
2021/11/25 01:51:27;;;;;;;12.73;5.13;;;;;;;;;;4964638;28;20034;-80
2021/11/25 01:53:55;;;;;;;;;;;;;;;;;;4939962;28;20042;-80
2021/11/25 01:56:22;;;;;;;12.48;5.55;;;;;;;;;;4985868;28;19960;-80
2021/11/25 01:58:52;;;;;;;11.05;4.95;;;;;;;;;;4979980;28;20259;-80
2021/11/25 02:01:22;;;;;;;13.60;4.90;;;;;;;;;;4970206;28;20042;-80
2021/11/25 02:03:54;;;;;;;12.63;4.60;;;;;;;;;;4966709;28;20089;-79
2021/11/25 02:06:22;;;;;;;14.38;4.88;;;;;;;;;;4984242;28;20795;-80
2021/11/25 02:08:48;;;;;;;11.65;4.28;;;;;;;;;;4983373;28;20038;-80
2021/11/25 02:11:15;;;;;;;13.20;4.80;;;;;;;;;;4976465;28;20540;-79
2021/11/25 02:13:43;;;;;;;10.52;3.85;;;;;;;;;;4929806;28;20070;-80
2021/11/25 02:16:10;;;;;;;12.75;4.47;;;;;;;;;;4943840;28;20202;-80
2021/11/25 02:18:39;;;;;;;12.32;4.80;;;;;;;;;;4929990;28;20101;-80
2021/11/25 02:21:09;;;;;;;11.90;4.65;;;;;;;;;;4930669;28;20078;-79
2021/11/25 02:23:37;;;;;;;12.23;4.35;;;;;;;;;;4964593;28;20085;-82
2021/11/25 02:26:03;;;;;;;;;;;;;;;;;;4949928;28;20030;-80
2021/11/25 02:28:31;;;;;;;10.50;4.07;;;;;;;;;;4968530;28;20423;-79
2021/11/25 02:30:59;;;;;;;13.38;4.22;;;;;;;;;;4986734;28;20049;-79
2021/11/25 02:33:29;;;;;;;10.00;3.70;;;;;;;;;;4979836;28;20042;-79
2021/11/25 02:35:56;;;;;;;13.65;3.85;;;;;;;;;;5004781;28;20545;-79
2021/11/25 02:38:27;;;;;;;10.23;4.18;;;;;;;;;;5004233;28;20038;-79
2021/11/25 02:40:56;;;;;;;10.35;4.13;;;;;;;;;;4976584;28;20025;-79
2021/11/25 02:43:26;;;;;;;10.00;4.30;;;;;;;;;;5020920;28;20051;-80
2021/11/25 02:45:58;;;;;;;9.68;3.72;;;;;;;;;;5036868;28;20103;-79
2021/11/25 02:48:42;;;;;;;11.40;3.90;;;;;;;;;;5036252;28;20059;-79
2021/11/25 02:51:11;;;;;;;9.98;3.55;;;;;;;;;;5032832;28;20048;-81
2021/11/25 02:53:39;;;;;;;11.40;3.45;;;;;;;;;;5039096;28;20710;-79
2021/11/25 02:56:11;;;;;;;11.23;3.65;;;;;;;;;;5022267;28;20076;-79
2021/11/25 02:58:43;;;;;;;12.10;3.90;;;;;;;;;;5035695;28;20036;-81
2021/11/25 03:01:21;;;;;;;10.38;3.58;;;;;;;;;;5037492;28;20029;-81
2021/11/25 03:03:50;;;;;;;13.73;4.00;;;;;;;;;;5036978;28;20131;-79
2021/11/25 03:06:17;;;;;;;11.23;3.80;;;;;;;;;;5023837;28;20071;-80
2021/11/25 03:08:49;;;;;;;10.63;4.10;;;;;;;;;;5030366;28;20414;-80
2021/11/25 03:11:17;;;;;;;13.65;4.10;;;;;;;;;;5036201;28;20308;-79
2021/11/25 03:13:45;;;;;;;12.48;3.90;;;;;;;;;;5027059;28;20049;-80
2021/11/25 03:16:13;;;;;;;10.55;3.70;;;;;;;;;;5023597;28;20675;-80
2021/11/25 03:18:41;;;;;;;13.38;4.40;;;;;;;;;;5017786;28;20084;-80
2021/11/25 03:21:09;;;;;;;12.07;4.18;;;;;;;;;;5025225;28;20364;-79
2021/11/25 03:23:37;;;;;;;13.60;4.85;;;;;;;;;;5019126;28;20041;-80
2021/11/25 03:26:11;;;;;;;12.75;4.43;;;;;;;;;;5030149;28;20301;-79
2021/11/25 03:28:44;;;;;;;17.95;5.93;;;;;;;;;;5034526;28;20164;-80
2021/11/25 03:31:13;;;;;;;27.60;6.20;;;;;;;;;;5016974;28;20071;-80
2021/11/25 03:33:43;;;;;;;17.38;6.07;;;;;;;;;;5018918;28;20036;-80
2021/11/25 03:36:11;;;;;;;16.52;5.45;;;;;;;;;;5030866;28;20395;-80
2021/11/25 03:38:42;;;;;;;20.95;6.20;;;;;;;;;;5035079;28;20048;-79
2021/11/25 03:41:13;;;;;;;16.20;4.50;;;;;;;;;;5040391;28;20945;-79
2021/11/25 03:43:40;;;;;;;13.88;4.30;;;;;;;;;;5035753;28;20036;-79
2021/11/25 03:46:08;;;;;;;16.95;5.38;;;;;;;;;;5036210;28;20064;-79
2021/11/25 03:48:38;;;;;;;15.55;5.05;;;;;;;;;;5035241;28;20744;-79
2021/11/25 03:51:12;;;;;;;14.45;4.75;;;;;;;;;;5037184;28;20029;-79
2021/11/25 03:53:40;;;;;;;14.00;4.90;;;;;;;;;;5017954;28;20040;-80
2021/11/25 03:56:09;;;;;;;14.73;5.15;;;;;;;;;;5036567;28;20037;-78
2021/11/25 03:58:37;;;;;;;12.88;4.30;;;;;;;;;;5035450;28;20199;-80
2021/11/25 04:01:06;;;;;;;14.85;4.65;;;;;;;;;;5037179;28;20033;-79
2021/11/25 04:03:33;;;;;;;12.63;4.47;;;;;;;;;;5033869;28;20087;-79
2021/11/25 04:06:02;;;;;;;14.80;4.75;;;;;;;;;;5037634;28;20663;-80
2021/11/25 04:08:30;;;;;;;15.93;4.97;;;;;;;;;;4997637;28;20098;-79
2021/11/25 04:10:57;;;;;;;13.52;4.75;;;;;;;;;;5030982;28;20521;-79
2021/11/25 04:13:23;;;;;;;;;;;;;;;;;;5036728;28;20059;-79
2021/11/25 04:15:51;;;;;;;13.45;4.18;;;;;;;;;;5037104;28;19917;-80
2021/11/25 04:18:18;;;;;;;14.68;5.20;;;;;;;;;;5034902;28;20033;-79
2021/11/25 04:20:46;;;;;;;12.88;4.10;;;;;;;;;;5034040;28;20116;-79
2021/11/25 04:23:13;;;;;;;15.48;4.30;;;;;;;;;;5036546;28;20755;-80
2021/11/25 04:25:41;;;;;;;12.40;4.32;;;;;;;;;;5018477;28;20180;-79
2021/11/25 04:28:09;;;;;;;10.40;4.05;;;;;;;;;;5025324;28;20047;-79
2021/11/25 04:36:14;;;;;;;11.57;3.33;;;;;;;;;;5014958;28;20056;-79
2021/11/25 04:38:41;;;;;;;7.95;2.60;;;;;;;;;;5020240;28;20025;-79
2021/11/25 04:41:10;;;;;;;10.48;3.10;;;;;;;;;;5016676;28;20045;-79
2021/11/25 04:43:39;;;;;;;8.07;2.70;;;;;;;;;;5017837;28;20037;-79
2021/11/25 04:46:07;;;;;;;8.38;2.65;;;;;;;;;;5019533;28;20033;-79
2021/11/25 04:48:35;;;;;;;8.63;2.58;;;;;;;;;;5010198;28;20048;-80
2021/11/25 04:51:04;;;;;;;10.35;2.80;;;;;;;;;;5012625;28;20033;-79
2021/11/25 04:53:32;;;;;;;9.57;3.00;;;;;;;;;;5020420;28;23842;-79
2021/11/25 04:56:02;;;;;;;11.02;2.95;;;;;;;;;;5020177;28;20140;-79
2021/11/25 04:58:30;;;;;;;12.23;4.57;;;;;;;;;;5024190;28;20057;-80
2021/11/25 05:00:58;;;;;;;12.20;4.45;;;;;;;;;;5019283;28;20496;-80
2021/11/25 05:03:27;;;;;;;14.88;4.32;;;;;;;;;;5013920;28;20032;-79
2021/11/25 05:05:55;;;;;;;9.57;4.13;;;;;;;;;;5023479;28;20086;-81
2021/11/25 05:08:22;;;;;;;10.55;4.18;;;;;;;;;;5002772;28;20044;-81
2021/11/25 05:10:51;;;;;;;10.10;3.60;;;;;;;;;;5006641;28;20052;-80
2021/11/25 05:13:19;;;;;;;11.15;4.03;;;;;;;;;;5035804;28;20055;-79
2021/11/25 05:15:46;;;;;;;16.25;4.25;;;;;;;;;;5026566;28;21115;-79
2021/11/25 05:18:24;;;;;;;9.32;3.30;;;;;;;;;;5029083;28;20037;-80
2021/11/25 05:20:53;;;;;;;10.32;3.42;;;;;;;;;;5044316;28;20092;-80
2021/11/25 05:23:19;;;;;;;9.00;3.05;;;;;;;;;;5027961;28;20029;-79
2021/11/25 05:25:47;;;;;;;11.13;3.20;;;;;;;;;;5028371;28;20063;-79
2021/11/25 05:28:15;;;;;;;9.38;2.90;;;;;;;;;;5039381;28;20032;-80
2021/11/25 05:30:42;;;;;;;10.60;2.90;;;;;;;;;;5032226;28;20064;-80
2021/11/25 05:33:10;;;;;;;9.38;3.03;;;;;;;;;;5046801;28;20028;-80
2021/11/25 05:35:38;;;;;;;11.27;3.70;;;;;;;;;;5022879;28;20044;-80
2021/11/25 05:38:06;;;;;;;8.45;2.90;;;;;;;;;;5028065;28;20040;-81
2021/11/25 05:40:33;;;;;;;9.38;3.10;;;;;;;;;;5050321;28;20064;-79
2021/11/25 05:43:00;;;;;;;8.27;2.95;;;;;;;;;;5050302;28;20032;-80
2021/11/25 05:45:27;;;;;;;9.20;3.05;;;;;;;;;;5033404;28;20033;-80
2021/11/25 05:47:54;;;;;;;;;;;;;;;;;;5046720;28;20040;-80
2021/11/25 05:50:24;;;;;;;10.32;3.35;;;;;;;;;;5040988;28;20482;-80
2021/11/25 05:52:56;;;;;;;9.80;3.40;;;;;;;;;;5021938;28;20128;-80
2021/11/25 05:55:26;;;;;;;12.27;3.78;;;;;;;;;;5037051;28;20082;-80
2021/11/25 05:57:55;;;;;;;13.65;3.40;;;;;;;;;;5041847;28;20036;-82
2021/11/25 06:00:22;;;;;;;10.70;3.47;;;;;;;;;;5028809;28;20036;-80
2021/11/25 06:02:49;;;;;;;9.13;3.10;;;;;;;;;;5013501;28;20032;-80
2021/11/25 06:05:20;;;;;;;9.43;3.08;;;;;;;;;;5046771;28;20063;-80
2021/11/25 06:07:48;;;;;;;7.57;2.65;;;;;;;;;;5039196;28;20032;-80
2021/11/25 06:10:31;;;;;;;10.32;2.60;;;;;;;;;;5019329;28;20134;-80
2021/11/25 06:13:00;;;;;;;11.63;3.35;;;;;;;;;;5037865;28;20041;-79
2021/11/25 06:15:28;;;;;;;8.68;3.03;;;;;;;;;;5027150;28;20044;-80
2021/11/25 06:17:56;;;;;;;11.27;3.47;;;;;;;;;;5038351;28;20493;-80
2021/11/25 06:20:26;;;;;;;11.18;3.65;;;;;;;;;;5038550;28;20917;-80
2021/11/25 06:22:54;;;;;;;13.13;4.20;;;;;;;;;;5015887;28;20037;-80
2021/11/25 06:25:25;;;;;;;12.13;4.60;;;;;;;;;;5020148;28;20040;-80
2021/11/25 06:27:52;;;;;;;21.10;12.90;;;;;;;;;;5034228;28;20059;-80
2021/11/25 06:30:22;;;;;;;16.67;9.32;;;;;;;;;;5053675;28;20078;-80
2021/11/25 06:32:49;;;;;;;16.65;9.77;;;;;;;;;;5045032;28;20672;-80
2021/11/25 06:35:17;;;;;;;16.27;9.27;;;;;;;;;;5050155;28;20032;-81
2021/11/25 06:37:49;;;;;;;21.73;11.57;;;;;;;;;;5038918;28;20552;-81
2021/11/25 06:40:17;;;;;;;20.00;11.18;;;;;;;;;;5051659;28;20598;-81
2021/11/25 06:42:46;;;;;;;19.27;10.18;;;;;;;;;;5037189;28;20071;-80
2021/11/25 06:45:14;;;;;;;18.60;9.55;;;;;;;;;;5042193;28;20089;-81
2021/11/25 06:47:44;;;;;;;19.70;12.13;;;;;;;;;;5038989;28;20141;-81
2021/11/25 06:50:15;;;;;;;18.23;9.23;;;;;;;;;;5053590;28;20127;-79
2021/11/25 06:52:42;;;;;;;14.77;6.78;;;;;;;;;;5037067;28;20040;-79
2021/11/25 06:55:14;;;;;;;12.77;5.90;;;;;;;;;;5040881;28;20024;-81
2021/11/25 06:57:49;;;;;;;20.23;10.57;;;;;;;;;;5053390;28;20032;-81
2021/11/25 07:00:17;;;;;;;14.30;7.38;;;;;;;;;;5053331;28;20040;-80
2021/11/25 07:02:47;;;;;;;14.77;8.50;;;;;;;;;;5037514;28;20183;-80
2021/11/25 07:05:14;;;;;;;11.02;5.05;;;;;;;;;;5043122;28;20093;-80
2021/11/25 07:07:43;;;;;;;16.90;10.18;;;;;;;;;;5036326;28;20041;-81
2021/11/25 07:10:15;;;;;;;19.73;9.32;;;;;;;;;;5036263;28;20052;-81
2021/11/25 07:12:46;;;;;;;12.68;5.70;;;;;;;;;;5019574;28;20052;-81
2021/11/25 07:15:14;;;;;;;15.20;6.97;;;;;;;;;;5019961;28;20542;-81
2021/11/25 07:17:46;;;;;;;15.00;5.70;;;;;;;;;;5036594;28;20111;-81
2021/11/25 07:20:17;;;;;;;10.95;5.45;;;;;;;;;;5021667;28;20047;-80
2021/11/25 07:22:45;;;;;;;13.00;5.80;;;;;;;;;;5015171;28;20033;-80
2021/11/25 07:25:13;;;;;;;13.23;4.82;;;;;;;;;;5017601;28;20033;-81
2021/11/25 07:27:41;;;;;;;11.48;3.78;;;;;;;;;;5023019;28;20035;-81
2021/11/25 07:30:08;;;;;;;10.90;4.15;;;;;;;;;;5039596;28;20080;-80
2021/11/25 07:32:37;;;;;;;10.52;4.13;;;;;;;;;;5035128;28;20029;-80
2021/11/25 07:35:09;;;;;;;9.60;3.97;;;;;;;;;;5024567;28;20515;-81
2021/11/25 07:37:37;;;;;;;15.23;4.10;;;;;;;;;;5024378;28;20121;-81
2021/11/25 07:40:10;;;;;;;13.07;4.13;;;;;;;;;;5038917;28;20041;-81
2021/11/25 07:42:36;;;;;;;10.88;3.63;;;;;;;;;;5025184;28;20033;-81
2021/11/25 07:45:05;;;;;;;12.45;5.13;;;;;;;;;;4996768;28;20062;-81
2021/11/25 07:47:34;;;;;;;9.30;3.60;;;;;;;;;;5020850;28;20041;-81
2021/11/25 07:50:09;;;;;;;9.15;3.25;;;;;;;;;;5036052;28;20048;-82
2021/11/25 07:52:37;;;;;;;11.68;3.85;;;;;;;;;;5033147;28;20124;-81
2021/11/25 07:55:07;;;;;;;9.35;2.95;;;;;;;;;;5019836;28;20025;-81
2021/11/25 07:57:34;;;;;;;8.50;2.50;;;;;;;;;;5034878;28;20162;-81
2021/11/25 08:00:02;;;;;;;6.35;1.60;;;;;;;;;;5039777;28;20029;-81
2021/11/25 08:02:32;;;;;;;6.85;2.13;;;;;;;;;;5008443;28;20037;-81
2021/11/25 08:04:58;;;;;;;7.68;2.08;;;;;;;;;;5034993;28;20063;-81
2021/11/25 08:07:25;;;;;;;8.73;2.70;;;;;;;;;;5034343;28;20064;-81
2021/11/25 08:09:53;;;;;;;9.80;2.42;;;;;;;;;;5025534;28;20481;-81
2021/11/25 08:12:20;;;;;;;9.48;2.50;;;;;;;;;;5030579;28;20039;-82
2021/11/25 08:14:48;;;;;;;10.60;2.63;;;;;;;;;;5023538;28;20044;-81
2021/11/25 08:17:19;;;;;;;8.00;2.60;;;;;;;;;;5035645;28;20165;-82
2021/11/25 08:19:50;;;;;;;8.25;2.33;;;;;;;;;;5043546;28;20041;-82
2021/11/25 08:22:17;;;;;;;7.07;2.08;;;;;;;;;;5037224;28;20049;-82
2021/11/25 08:24:46;;;;;;;10.68;2.47;;;;;;;;;;5036530;28;20037;-82
2021/11/25 08:27:14;;;;;;;11.43;3.85;;;;;;;;;;5036200;28;20108;-83
2021/11/25 08:29:44;;;;;;;13.13;3.33;;;;;;;;;;5039642;28;20052;-84
2021/11/25 08:32:18;;;;;;;11.00;3.58;;;;;;;;;;5040072;28;20029;-82
2021/11/25 08:34:46;;;;;;;8.00;2.20;;;;;;;;;;5040470;28;20025;-83
2021/11/25 08:37:14;;;;;;;7.65;2.47;;;;;;;;;;5036417;28;20425;-83
2021/11/25 08:39:41;;;;;;;8.70;3.38;;;;;;;;;;5012456;28;20068;-84
2021/11/25 08:42:11;;;;;;;8.40;2.90;;;;;;;;;;5042722;28;20070;-84
2021/11/25 08:44:39;;;;;;;9.63;3.47;;;;;;;;;;5019994;28;20048;-84
2021/11/25 08:47:06;;;;;;;10.10;3.88;;;;;;;;;;5038804;28;20047;-84
2021/11/25 08:49:34;;;;;;;9.20;2.97;;;;;;;;;;5040196;28;20613;-85
2021/11/25 08:52:03;;;;;;;8.32;2.75;;;;;;;;;;5038218;28;20036;-84
2021/11/25 08:54:31;;;;;;;13.40;4.57;;;;;;;;;;5036343;28;20394;-86
2021/11/25 08:56:57;;;;;;;11.00;5.40;;;;;;;;;;5038630;28;20033;-88
2021/11/25 08:59:26;;;;;;;13.68;5.88;;;;;;;;;;5025400;28;20583;-88
2021/11/25 09:01:55;;;;;;;12.50;5.15;;;;;;;;;;5041895;28;20071;-88
2021/11/25 09:04:23;;;;;;;9.85;3.47;;;;;;;;;;5024555;28;20064;-86
2021/11/25 09:06:51;;;;;;;8.48;3.20;;;;;;;;;;5016644;28;20103;-85
2021/11/25 09:09:18;;;;;;;10.88;4.00;;;;;;;;;;5018668;28;20053;-85
2021/11/25 09:11:45;;;;;;;16.45;4.93;;;;;;;;;;5022774;28;20071;-84
2021/11/25 09:14:12;;;;;;;11.85;3.03;;;;;;;;;;5022895;28;20231;-85
2021/11/25 09:16:42;;;;;;;8.50;3.03;;;;;;;;;;5022333;28;20025;-87
2021/11/25 09:19:08;;;;;;;9.57;3.25;;;;;;;;;;5020278;28;20088;-86
2021/11/25 09:21:35;;;;;;;32.35;18.30;;;;;;;;;;5030949;28;20032;-86
2021/11/25 09:24:05;;;;;;;34.20;22.13;;;;;;;;;;5047350;28;20032;-87
2021/11/25 09:26:34;;;;;;;15.18;7.53;;;;;;;;;;5040745;28;20025;-88
2021/11/25 09:29:00;;;;;;;11.82;5.40;;;;;;;;;;5056617;28;20131;-86
2021/11/25 09:31:30;;;;;;;27.80;16.33;;;;;;;;;;5019127;28;20732;-86
2021/11/25 09:33:57;;;;;;;21.77;12.60;;;;;;;;;;5029658;28;20445;-86
2021/11/25 09:36:27;;;;;;;22.20;13.48;;;;;;;;;;5010833;28;20051;-85
2021/11/25 09:38:56;;;;;;;18.35;10.35;;;;;;;;;;5045468;28;20170;-87
2021/11/25 09:41:25;;;;;;;18.45;9.77;;;;;;;;;;5017449;28;20436;-87
2021/11/25 09:43:52;;;;;;;18.08;9.82;;;;;;;;;;5044720;28;20774;-87
2021/11/25 09:46:23;;;;;;;14.35;6.65;;;;;;;;;;5029286;28;20120;-87
2021/11/25 09:48:54;;;;;;;11.00;4.72;;;;;;;;;;5042599;28;20610;-87
2021/11/25 09:51:25;;;;;;;12.10;5.25;;;;;;;;;;5032899;28;20040;-86
2021/11/25 09:53:52;;;;;;;12.38;5.90;;;;;;;;;;5031033;28;20111;-86
2021/11/25 09:56:23;;;;;;;10.57;4.20;;;;;;;;;;5024664;28;20025;-85
2021/11/25 09:59:01;;;;;;;10.63;4.93;;;;;;;;;;5023308;28;20141;-86
2021/11/25 10:01:28;;;;;;;10.68;4.35;;;;;;;;;;5025003;28;20032;-85
2021/11/25 10:03:57;;;;;;;12.88;4.38;;;;;;;;;;5023061;28;20037;-86
2021/11/25 10:06:37;;;;;;;10.05;3.78;;;;;;;;;;5025076;28;20068;-85
2021/11/25 10:09:09;;;;;;;9.32;3.28;;;;;;;;;;5022362;28;20044;-86
2021/11/25 10:11:47;;;;;;;6.80;2.33;;;;;;;;;;5013009;28;20118;-85
2021/11/25 10:14:15;;;;;;;8.73;3.08;;;;;;;;;;5026092;28;20053;-84
2021/11/25 10:16:45;;;;;;;9.73;3.33;;;;;;;;;;5021100;28;20033;-85
2021/11/25 10:19:21;;;;;;;10.82;4.00;;;;;;;;;;5029108;28;20428;-84
2021/11/25 10:21:56;;;;;;;8.80;3.50;;;;;;;;;;5021520;28;20060;-82
2021/11/25 10:24:44;;;;;;;10.88;2.42;;;;;;;;;;5014156;28;20540;-84
2021/11/25 10:27:10;;;;;;;;;;;;;;;;;;5045646;28;20123;-84
2021/11/25 10:29:37;;;;;;;7.47;2.15;;;;;;;;;;5039451;28;20323;-83
2021/11/25 10:32:06;;;;;;;8.95;2.83;;;;;;;;;;5030857;28;20499;-83
2021/11/25 10:34:53;;;;;;;8.90;2.70;;;;;;;;;;5025744;28;20033;-86
2021/11/25 10:37:53;;;;;;;10.07;3.05;;;;;;;;;;5026898;28;20040;-84
2021/11/25 10:40:33;;;;;;;8.85;2.47;;;;;;;;;;5022859;28;20397;-83
2021/11/25 10:43:17;;;;;;;8.90;3.22;;;;;;;;;;5002648;28;20040;-85
2021/11/25 10:45:47;;;;;;;10.48;2.05;;;;;;;;;;5029207;28;20140;-83
2021/11/25 10:48:32;;;;;;;9.55;3.50;;;;;;;;;;5011915;28;20918;-85
2021/11/25 10:51:02;;;;;;;12.52;4.35;;;;;;;;;;5039147;28;20423;-83
2021/11/25 10:53:29;;;;;;;8.95;3.53;;;;;;;;;;5032009;28;20072;-84
2021/11/25 10:56:11;;;;;;;10.57;3.63;;;;;;;;;;5007794;28;20033;-84
2021/11/25 10:58:52;;;;;;;8.93;3.17;;;;;;;;;;5030678;28;20037;-83
2021/11/25 11:01:32;;;;;;;9.05;2.80;;;;;;;;;;5017963;28;20033;-85
2021/11/25 11:04:02;;;;;;;11.88;3.15;;;;;;;;;;5020079;28;20158;-84
2021/11/25 11:06:33;;;;;;;8.95;2.45;;;;;;;;;;5038443;28;20143;-84
2021/11/25 11:09:01;;;;;;;7.15;2.70;;;;;;;;;;5027845;28;20059;-84
2021/11/25 11:11:30;;;;;;;6.15;1.85;;;;;;;;;;5024845;28;20033;-85
2021/11/25 11:17:21;;;;;;;8.98;2.50;;;;;;;;;;5026540;28;20071;-85
2021/11/25 11:20:08;;;;;;;6.38;2.13;;;;;;;;;;5011571;28;20037;-85
2021/11/25 11:22:36;;;;;;;6.97;2.08;;;;;;;;;;5016674;28;20555;-86
2021/11/25 11:25:05;;;;;;;5.88;1.58;;;;;;;;;;5031738;28;20052;-86
2021/11/25 11:27:34;;;;;;;5.85;1.65;;;;;;;;;;5038155;28;20033;-86
2021/11/25 11:30:02;;;;;;;5.38;1.60;;;;;;;;;;5038888;28;20645;-86
2021/11/25 11:32:31;;;;;;;5.22;1.67;;;;;;;;;;5025536;28;20029;-87
2021/11/25 11:35:01;;;;;;;5.75;1.70;;;;;;;;;;5038563;28;20060;-87
2021/11/25 11:37:30;;;;;;;5.18;1.55;;;;;;;;;;5037132;28;20063;-87
2021/11/25 11:40:01;;;;;;;5.25;1.40;;;;;;;;;;5039660;28;20057;-86
2021/11/25 11:42:28;;;;;;;5.80;1.55;;;;;;;;;;5037212;28;20132;-87
2021/11/25 11:44:56;;;;;;;7.35;1.65;;;;;;;;;;5040114;28;20045;-87
2021/11/25 11:47:25;;;;;;;4.47;1.20;;;;;;;;;;5038199;28;20033;-87
2021/11/25 11:49:53;;;;;;;7.35;2.40;;;;;;;;;;5036344;28;20110;-87
2021/11/25 11:52:23;;;;;;;6.88;2.30;;;;;;;;;;5039937;28;20036;-87
2021/11/25 11:54:59;;;;;;;9.25;3.28;;;;;;;;;;5025530;28;20467;-87
2021/11/25 11:57:32;;;;;;;17.63;8.32;;;;;;;;;;5023421;28;20040;-86
2021/11/25 12:00:03;;;;;;;14.70;7.78;;;;;;;;;;5029686;28;20036;-86
2021/11/25 12:02:50;;;;;;;14.18;6.97;;;;;;;;;;5020965;28;20051;-87
2021/11/25 12:05:37;;;;;;;10.55;4.63;;;;;;;;;;5039147;28;20084;-85
2021/11/25 12:08:24;;;;;;;9.27;3.97;;;;;;;;;;5022686;28;20036;-85
2021/11/25 12:11:12;;;;;;;9.07;3.63;;;;;;;;;;5013266;28;20171;-84
2021/11/25 12:14:01;;;;;;;9.40;3.42;;;;;;;;;;4996347;28;20041;-86
2021/11/25 12:16:31;;;;;;;31.00;21.92;;;;;;;;;;4960664;28;20141;-87
2021/11/25 12:19:03;;;;;;;8.55;3.75;;;;;;;;;;4947738;28;20518;-80
2021/11/25 12:21:47;;;;;;;9.80;2.42;;;;;;;;;;4969170;28;20088;-80
2021/11/25 12:24:44;;;;;;;6.80;1.98;;;;;;;;;;4982088;28;20116;-81
2021/11/25 12:27:33;;;;;;;8.85;2.95;;;;;;;;;;4969914;28;20821;-79
2021/11/25 12:30:16;;;;;;;8.35;2.45;;;;;;;;;;4981497;28;20150;-79
2021/11/25 12:32:55;;;;;;;7.35;2.65;;;;;;;;;;4975575;28;20049;-78
2021/11/25 12:35:33;;;;;;;9.30;2.90;;;;;;;;;;4974000;28;20543;-81
2021/11/25 12:38:05;;;;;;;13.25;5.97;;;;;;;;;;4993152;28;20038;-78
2021/11/25 12:40:35;;;;;;;10.38;4.28;;;;;;;;;;4995520;28;20042;-78
2021/11/25 12:43:16;;;;;;;6.88;2.60;;;;;;;;;;4994092;28;20041;-79
2021/11/25 12:45:48;;;;;;;10.23;4.43;;;;;;;;;;4995142;28;20042;-79
2021/11/25 12:48:15;;;;;;;8.57;3.45;;;;;;;;;;4995273;28;20034;-79
2021/11/25 12:50:44;;;;;;;10.02;3.22;;;;;;;;;;4994739;28;20045;-79
2021/11/25 12:53:20;;;;;;;10.15;3.80;;;;;;;;;;4997583;28;20135;-80
2021/11/25 12:55:56;;;;;;;13.20;5.40;;;;;;;;;;4993006;28;20509;-81
2021/11/25 12:58:30;;;;;;;15.02;4.47;;;;;;;;;;4995251;28;20034;-83
2021/11/25 13:01:00;;;;;;;12.35;4.90;;;;;;;;;;4995482;28;20104;-81
2021/11/25 13:03:31;;;;;;;12.23;5.38;;;;;;;;;;5011113;28;20045;-81
2021/11/25 13:06:01;;;;;;;13.02;6.25;;;;;;;;;;4993626;28;20022;-81
2021/11/25 13:08:38;;;;;;;11.65;5.32;;;;;;;;;;4964157;28;20145;-81
2021/11/25 13:11:35;;;;;;;11.13;5.70;;;;;;;;;;4980874;28;20682;-81
2021/11/25 13:14:09;;;;;;;11.25;4.05;;;;;;;;;;4954335;28;20042;-81
2021/11/25 13:16:42;;;;;;;9.85;4.00;;;;;;;;;;4990221;28;20046;-81
2021/11/25 13:19:11;;;;;;;10.13;3.63;;;;;;;;;;5002544;28;20033;-81
2021/11/25 13:21:40;;;;;;;9.20;3.20;;;;;;;;;;4987757;28;20138;-82
2021/11/25 13:24:26;;;;;;;11.32;3.38;;;;;;;;;;5008216;28;20158;-82
2021/11/25 13:27:01;;;;;;;9.57;3.40;;;;;;;;;;4980153;28;20044;-81
2021/11/25 13:29:54;;;;;;;8.02;2.92;;;;;;;;;;4980728;28;20049;-82
2021/11/25 13:32:38;;;;;;;6.45;2.17;;;;;;;;;;4982415;28;20046;-84
2021/11/25 13:35:12;;;;;;;6.38;2.25;;;;;;;;;;4985781;28;20567;-83
2021/11/25 13:37:40;;;;;;;8.35;2.38;;;;;;;;;;4968657;28;20069;-81
2021/11/25 13:40:11;;;;;;;8.88;2.50;;;;;;;;;;4982687;28;20034;-81
2021/11/25 13:42:44;;;;;;;8.90;2.33;;;;;;;;;;4980511;28;20061;-81
2021/11/25 13:45:20;;;;;;;7.10;2.20;;;;;;;;;;4981099;28;20165;-82
2021/11/25 13:47:49;;;;;;;8.07;1.80;;;;;;;;;;4963309;28;20634;-81
2021/11/25 13:50:21;;;;;;;6.53;2.00;;;;;;;;;;4995624;28;20044;-81
2021/11/25 13:52:53;;;;;;;12.30;7.13;;;;;;;;;;4995210;28;20052;-81
2021/11/25 13:55:26;;;;;;;8.00;3.20;;;;;;;;;;5003449;28;20036;-81
2021/11/25 13:57:57;;;;;;;5.85;1.80;;;;;;;;;;5008396;28;20048;-82
2021/11/25 14:00:34;;;;;;;4.60;1.40;;;;;;;;;;4998516;28;20574;-82
2021/11/25 14:03:14;;;;;;;7.72;2.10;;;;;;;;;;4998319;28;20593;-81
2021/11/25 14:05:45;;;;;;;6.05;1.52;;;;;;;;;;4998812;28;20055;-80
2021/11/25 14:08:14;;;;;;;6.75;2.03;;;;;;;;;;4985744;28;20057;-80
2021/11/25 14:10:43;;;;;;;6.80;2.13;;;;;;;;;;5015960;28;20066;-80
2021/11/25 14:13:28;;;;;;;9.35;3.63;;;;;;;;;;5007096;28;20684;-80
2021/11/25 14:15:55;;;;;;;10.05;4.13;;;;;;;;;;4975057;28;20140;-80
2021/11/25 14:18:32;;;;;;;11.20;4.45;;;;;;;;;;5010448;28;20132;-82
2021/11/25 14:20:59;;;;;;;8.68;3.47;;;;;;;;;;5013285;28;20183;-79
2021/11/25 14:23:28;;;;;;;10.02;3.17;;;;;;;;;;5002134;28;20041;-80
2021/11/25 14:26:11;;;;;;;5.90;1.85;;;;;;;;;;5011407;28;20177;-81
2021/11/25 14:31:27;;;;;;;5.72;1.50;;;;;;;;;;5016647;28;20102;-81
2021/11/25 14:34:07;;;;;;;5.63;1.40;;;;;;;;;;5030179;28;20052;-80
2021/11/25 14:36:41;;;;;;;5.80;1.80;;;;;;;;;;5021747;28;20194;-80
2021/11/25 14:39:27;;;;;;;7.88;2.20;;;;;;;;;;5031344;28;20061;-81
2021/11/25 14:41:56;;;;;;;3.30;1.38;;;;;;;;;;5052175;28;20052;-81
2021/11/25 14:44:30;;;;;;;4.97;1.52;;;;;;;;;;5041919;28;20059;-82
2021/11/25 14:47:16;;;;;;;6.68;1.35;;;;;;;;;;5014880;28;20041;-81
2021/11/25 14:49:43;;;;;;;5.28;1.30;;;;;;;;;;5028892;28;20133;-81
2021/11/25 14:52:24;;;;;;;5.47;1.70;;;;;;;;;;5024932;28;20506;-79
2021/11/25 14:55:17;;;;;;;3.38;1.00;;;;;;;;;;5018032;28;20033;-80
2021/11/25 14:57:57;;;;;;;4.85;1.02;;;;;;;;;;5017170;28;20222;-81
2021/11/25 15:00:26;;;;;;;5.47;1.50;;;;;;;;;;5029580;28;20087;-80
2021/11/25 15:03:00;;;;;;;3.80;1.50;;;;;;;;;;5017649;28;20060;-79
2021/11/25 15:05:29;;;;;;;7.53;2.20;;;;;;;;;;5014717;28;20045;-80
2021/11/25 15:08:03;;;;;;;5.00;1.30;;;;;;;;;;5016768;28;20877;-82
2021/11/25 15:10:32;;;;;;;4.72;1.48;;;;;;;;;;5016465;28;20041;-80